PTMEM SBBH-SBKP
Flight info
| Callsign | PTMEM |
|---|---|
| Flight time | 2h 22m |
| Altitude | 10000 |
| Route | ANDEM Z92 ENTIT |
| Aircraft | C208/L-SDFGR/C |
Departure
| Time | 2026-05-06 03:35 |
|---|---|
| Airport | Pampulha - Carlos Drummond de Andrade Airport (SBBH) |
Arrival
| Time | 2026-05-06 05:57 |
|---|---|
| Airport | Viracopos International Airport (SBKP) |
| Time | Latitude | Longitude | Altitude | Speed | Heading |
|---|---|---|---|---|---|
| 2026-05-06 02:41 | -19.84877 | -43.94952 | 2609 ft | 0 kts | 21° |
| 2026-05-06 03:20 | -19.84886 | -43.94955 | 2610 ft | 2 kts | 21° |
| 2026-05-06 03:20 | -19.84899 | -43.94961 | 2610 ft | 2 kts | 20° |
| 2026-05-06 03:21 | -19.84913 | -43.94965 | 2610 ft | 2 kts | 2° |
| 2026-05-06 03:21 | -19.84923 | -43.94964 | 2611 ft | 2 kts | 339° |
| 2026-05-06 03:21 | -19.84934 | -43.94954 | 2611 ft | 2 kts | 301° |
| 2026-05-06 03:21 | -19.84937 | -43.94947 | 2611 ft | 0 kts | 289° |
| 2026-05-06 03:26 | -19.84937 | -43.94948 | 2611 ft | 0 kts | 289° |
| 2026-05-06 03:26 | -19.84936 | -43.94950 | 2611 ft | 1 kts | 288° |
| 2026-05-06 03:26 | -19.84927 | -43.94976 | 2611 ft | 5 kts | 292° |
| 2026-05-06 03:27 | -19.84907 | -43.95029 | 2610 ft | 10 kts | 291° |
| 2026-05-06 03:27 | -19.84904 | -43.95114 | 2608 ft | 14 kts | 231° |
| 2026-05-06 03:27 | -19.84914 | -43.95219 | 2607 ft | 16 kts | 289° |
| 2026-05-06 03:27 | -19.84895 | -43.95293 | 2607 ft | 0 kts | 272° |
| 2026-05-06 03:29 | -19.84895 | -43.95294 | 2607 ft | 0 kts | 272° |
| 2026-05-06 03:29 | -19.84895 | -43.95300 | 2607 ft | 2 kts | 271° |
| 2026-05-06 03:29 | -19.84898 | -43.95329 | 2606 ft | 5 kts | 258° |
| 2026-05-06 03:30 | -19.84917 | -43.95373 | 2606 ft | 7 kts | 231° |
| 2026-05-06 03:30 | -19.84933 | -43.95427 | 2606 ft | 8 kts | 282° |
| 2026-05-06 03:30 | -19.84909 | -43.95496 | 2606 ft | 12 kts | 292° |
| 2026-05-06 03:30 | -19.84869 | -43.95605 | 2608 ft | 18 kts | 290° |
| 2026-05-06 03:31 | -19.84817 | -43.95752 | 2611 ft | 23 kts | 290° |
| 2026-05-06 03:31 | -19.84755 | -43.95927 | 2614 ft | 26 kts | 286° |
| 2026-05-06 03:31 | -19.84703 | -43.96026 | 2616 ft | 14 kts | 118° |
| 2026-05-06 03:31 | -19.84743 | -43.95956 | 2615 ft | 0 kts | 111° |
| 2026-05-06 03:33 | -19.84771 | -43.95878 | 2614 ft | 36 kts | 108° |
| 2026-05-06 03:34 | -19.84930 | -43.95439 | 2607 ft | 84 kts | 108° |
| 2026-05-06 03:34 | -19.85164 | -43.94794 | 2698 ft | 98 kts | 108° |
| 2026-05-06 03:34 | -19.85400 | -43.94122 | 2911 ft | 95 kts | 112° |
| 2026-05-06 03:34 | -19.85646 | -43.93456 | 3058 ft | 97 kts | 110° |
| 2026-05-06 03:35 | -19.85883 | -43.92769 | 3216 ft | 93 kts | 110° |
| 2026-05-06 03:35 | -19.86152 | -43.92107 | 3290 ft | 102 kts | 111° |
| 2026-05-06 03:35 | -19.86372 | -43.91441 | 3449 ft | 101 kts | 113° |
| 2026-05-06 03:35 | -19.86656 | -43.90699 | 3547 ft | 104 kts | 102° |
| 2026-05-06 03:36 | -19.86912 | -43.89964 | 3645 ft | 109 kts | 107° |
| 2026-05-06 03:36 | -19.87154 | -43.89213 | 3877 ft | 103 kts | 107° |
| 2026-05-06 03:36 | -19.87397 | -43.88510 | 4094 ft | 97 kts | 107° |
| 2026-05-06 03:36 | -19.87630 | -43.87850 | 4283 ft | 95 kts | 106° |
| 2026-05-06 03:37 | -19.87862 | -43.87192 | 4449 ft | 96 kts | 107° |
| 2026-05-06 03:37 | -19.88104 | -43.86515 | 4613 ft | 99 kts | 106° |
| 2026-05-06 03:37 | -19.88355 | -43.85822 | 4753 ft | 103 kts | 108° |
| 2026-05-06 03:37 | -19.88706 | -43.84841 | 4944 ft | 108 kts | 107° |
| 2026-05-06 03:38 | -19.88894 | -43.84324 | 5024 ft | 111 kts | 108° |
| 2026-05-06 03:38 | -19.89128 | -43.83537 | 5175 ft | 114 kts | 108° |
| 2026-05-06 03:38 | -19.89432 | -43.82735 | 5321 ft | 116 kts | 109° |
| 2026-05-06 03:38 | -19.89729 | -43.81943 | 5539 ft | 111 kts | 108° |
| 2026-05-06 03:39 | -19.90004 | -43.81199 | 5757 ft | 106 kts | 107° |
| 2026-05-06 03:39 | -19.90266 | -43.80477 | 5982 ft | 101 kts | 107° |
| 2026-05-06 03:39 | -19.90511 | -43.79797 | 6200 ft | 95 kts | 106° |
| 2026-05-06 03:39 | -19.90742 | -43.79146 | 6383 ft | 93 kts | 105° |
| 2026-05-06 03:40 | -19.90967 | -43.78507 | 6559 ft | 92 kts | 105° |
| 2026-05-06 03:40 | -19.91196 | -43.77860 | 6718 ft | 93 kts | 105° |
| 2026-05-06 03:40 | -19.91431 | -43.77198 | 6881 ft | 94 kts | 106° |
| 2026-05-06 03:40 | -19.91667 | -43.76534 | 7010 ft | 100 kts | 106° |
| 2026-05-06 03:41 | -19.91933 | -43.75781 | 7032 ft | 117 kts | 107° |
| 2026-05-06 03:41 | -19.92244 | -43.74916 | 7030 ft | 132 kts | 108° |
| 2026-05-06 03:41 | -19.92597 | -43.73943 | 7027 ft | 144 kts | 108° |
| 2026-05-06 03:41 | -19.93204 | -43.73055 | 7019 ft | 156 kts | 148° |
| 2026-05-06 03:42 | -19.94281 | -43.72875 | 7103 ft | 160 kts | 187° |
| 2026-05-06 03:42 | -19.95337 | -43.73197 | 7335 ft | 152 kts | 195° |
| 2026-05-06 03:42 | -19.96320 | -43.73577 | 7564 ft | 145 kts | 197° |
| 2026-05-06 03:42 | -19.97256 | -43.73947 | 7795 ft | 138 kts | 196° |
| 2026-05-06 03:43 | -19.98150 | -43.74303 | 7996 ft | 136 kts | 196° |
| 2026-05-06 03:43 | -19.99089 | -43.74672 | 8035 ft | 147 kts | 196° |
| 2026-05-06 03:43 | -20.00094 | -43.75071 | 8040 ft | 157 kts | 197° |
| 2026-05-06 03:43 | -20.01166 | -43.75500 | 8034 ft | 164 kts | 197° |
| 2026-05-06 03:44 | -20.02262 | -43.75942 | 8029 ft | 168 kts | 198° |
| 2026-05-06 03:44 | -20.03389 | -43.76394 | 8027 ft | 171 kts | 198° |
| 2026-05-06 03:44 | -20.04510 | -43.76846 | 8024 ft | 172 kts | 198° |
| 2026-05-06 03:44 | -20.05644 | -43.77300 | 8022 ft | 173 kts | 198° |
| 2026-05-06 03:45 | -20.06809 | -43.77767 | 8023 ft | 174 kts | 198° |
| 2026-05-06 03:45 | -20.07955 | -43.78226 | 8024 ft | 174 kts | 198° |
| 2026-05-06 03:45 | -20.09111 | -43.78689 | 8044 ft | 172 kts | 198° |
| 2026-05-06 03:45 | -20.10181 | -43.79121 | 8286 ft | 160 kts | 197° |
| 2026-05-06 03:46 | -20.11254 | -43.79549 | 8318 ft | 163 kts | 197° |
| 2026-05-06 03:46 | -20.12320 | -43.80036 | 8308 ft | 170 kts | 214° |
| 2026-05-06 03:46 | -20.13073 | -43.81031 | 8320 ft | 174 kts | 236° |
| 2026-05-06 03:46 | -20.13909 | -43.82555 | 8312 ft | 177 kts | 239° |
| 2026-05-06 03:47 | -20.14319 | -43.83331 | 8314 ft | 178 kts | 239° |
| 2026-05-06 03:47 | -20.14938 | -43.84501 | 8314 ft | 179 kts | 239° |
| 2026-05-06 03:47 | -20.15561 | -43.85674 | 8312 ft | 179 kts | 239° |
| 2026-05-06 03:47 | -20.16182 | -43.86839 | 8310 ft | 179 kts | 239° |
| 2026-05-06 03:48 | -20.16806 | -43.88010 | 8315 ft | 179 kts | 239° |
| 2026-05-06 03:48 | -20.17442 | -43.89202 | 8320 ft | 179 kts | 239° |
| 2026-05-06 03:48 | -20.18064 | -43.90371 | 8318 ft | 180 kts | 239° |
| 2026-05-06 03:48 | -20.18700 | -43.91562 | 8313 ft | 180 kts | 239° |
| 2026-05-06 03:49 | -20.19326 | -43.92736 | 8314 ft | 180 kts | 238° |
| 2026-05-06 03:49 | -20.19953 | -43.93914 | 8307 ft | 180 kts | 238° |
| 2026-05-06 03:49 | -20.20577 | -43.95089 | 8302 ft | 180 kts | 240° |
| 2026-05-06 03:49 | -20.20763 | -43.96403 | 8307 ft | 180 kts | 283° |
| 2026-05-06 03:50 | -20.20370 | -43.97677 | 8308 ft | 180 kts | 292° |
| 2026-05-06 03:50 | -20.19889 | -43.98911 | 8310 ft | 180 kts | 294° |
| 2026-05-06 03:50 | -20.19399 | -44.00147 | 8310 ft | 180 kts | 294° |
| 2026-05-06 03:50 | -20.18906 | -44.01398 | 8305 ft | 180 kts | 294° |
| 2026-05-06 03:51 | -20.18417 | -44.02644 | 8301 ft | 180 kts | 293° |
| 2026-05-06 03:51 | -20.17929 | -44.03891 | 8301 ft | 180 kts | 293° |
| 2026-05-06 03:51 | -20.17438 | -44.05145 | 8299 ft | 180 kts | 293° |
| 2026-05-06 03:51 | -20.16947 | -44.06400 | 8300 ft | 180 kts | 293° |
| 2026-05-06 03:52 | -20.16300 | -44.08052 | 8300 ft | 180 kts | 293° |
| 2026-05-06 03:52 | -20.15976 | -44.08879 | 8300 ft | 181 kts | 293° |
| 2026-05-06 03:52 | -20.15489 | -44.10126 | 8299 ft | 181 kts | 293° |
| 2026-05-06 03:52 | -20.15007 | -44.11359 | 8295 ft | 181 kts | 293° |
| 2026-05-06 03:53 | -20.14522 | -44.12597 | 8293 ft | 181 kts | 293° |
| 2026-05-06 03:53 | -20.14034 | -44.13842 | 8290 ft | 180 kts | 293° |
| 2026-05-06 03:53 | -20.13543 | -44.15093 | 8291 ft | 180 kts | 293° |
| 2026-05-06 03:53 | -20.12891 | -44.16757 | 8285 ft | 180 kts | 293° |
| 2026-05-06 03:54 | -20.12566 | -44.17586 | 8284 ft | 180 kts | 293° |
| 2026-05-06 03:54 | -20.12079 | -44.18828 | 8286 ft | 180 kts | 293° |
| 2026-05-06 03:54 | -20.11591 | -44.20070 | 8284 ft | 180 kts | 293° |
| 2026-05-06 03:54 | -20.11106 | -44.21308 | 8283 ft | 180 kts | 293° |
| 2026-05-06 03:55 | -20.10614 | -44.22561 | 8281 ft | 180 kts | 293° |
| 2026-05-06 03:55 | -20.10126 | -44.23804 | 8279 ft | 180 kts | 293° |
| 2026-05-06 03:55 | -20.09641 | -44.25040 | 8273 ft | 180 kts | 293° |
| 2026-05-06 03:55 | -20.09152 | -44.26288 | 8278 ft | 181 kts | 293° |
| 2026-05-06 03:56 | -20.08661 | -44.27537 | 8278 ft | 181 kts | 293° |
| 2026-05-06 03:56 | -20.08164 | -44.28803 | 8278 ft | 182 kts | 293° |
| 2026-05-06 03:56 | -20.07675 | -44.30047 | 8275 ft | 181 kts | 293° |
| 2026-05-06 03:56 | -20.07184 | -44.31296 | 8276 ft | 181 kts | 294° |
| 2026-05-06 03:57 | -20.06696 | -44.32538 | 8278 ft | 181 kts | 294° |
| 2026-05-06 03:57 | -20.06209 | -44.33776 | 8279 ft | 181 kts | 294° |
| 2026-05-06 03:57 | -20.05714 | -44.35031 | 8277 ft | 181 kts | 294° |
| 2026-05-06 03:57 | -20.05227 | -44.36272 | 8279 ft | 181 kts | 294° |
| 2026-05-06 03:58 | -20.04641 | -44.37458 | 8278 ft | 179 kts | 305° |
| 2026-05-06 03:58 | -20.03944 | -44.38574 | 8280 ft | 179 kts | 305° |
| 2026-05-06 03:58 | -20.03244 | -44.39674 | 8368 ft | 174 kts | 305° |
| 2026-05-06 03:58 | -20.02580 | -44.40724 | 8597 ft | 162 kts | 306° |
| 2026-05-06 03:59 | -20.01954 | -44.41718 | 8832 ft | 154 kts | 305° |
| 2026-05-06 03:59 | -20.01366 | -44.42654 | 9065 ft | 147 kts | 305° |
| 2026-05-06 03:59 | -20.00795 | -44.43563 | 9299 ft | 140 kts | 305° |
| 2026-05-06 03:59 | -20.00259 | -44.44416 | 9527 ft | 134 kts | 305° |
| 2026-05-06 04:00 | -19.99744 | -44.45238 | 9759 ft | 127 kts | 305° |
| 2026-05-06 04:00 | -19.99260 | -44.46012 | 9988 ft | 120 kts | 304° |
| 2026-05-06 04:00 | -19.98795 | -44.46755 | 10177 ft | 117 kts | 304° |
| 2026-05-06 04:00 | -19.98334 | -44.47492 | 10275 ft | 122 kts | 304° |
| 2026-05-06 04:01 | -19.97828 | -44.48298 | 10293 ft | 137 kts | 305° |
| 2026-05-06 04:01 | -19.97054 | -44.49522 | 10291 ft | 157 kts | 305° |
| 2026-05-06 04:01 | -19.96628 | -44.50193 | 10288 ft | 164 kts | 305° |
| 2026-05-06 04:01 | -19.95969 | -44.51234 | 10283 ft | 172 kts | 305° |
| 2026-05-06 04:02 | -19.95285 | -44.52308 | 10280 ft | 175 kts | 305° |
| 2026-05-06 04:02 | -19.94586 | -44.53411 | 10280 ft | 179 kts | 305° |
| 2026-05-06 04:02 | -19.93873 | -44.54537 | 10278 ft | 181 kts | 305° |
| 2026-05-06 04:02 | -19.93166 | -44.55653 | 10275 ft | 182 kts | 305° |
| 2026-05-06 04:03 | -19.92446 | -44.56791 | 10276 ft | 183 kts | 305° |
| 2026-05-06 04:03 | -19.91733 | -44.57922 | 10277 ft | 183 kts | 305° |
| 2026-05-06 04:03 | -19.91008 | -44.59069 | 10275 ft | 184 kts | 305° |
| 2026-05-06 04:03 | -19.90290 | -44.60206 | 10275 ft | 184 kts | 305° |
| 2026-05-06 04:04 | -19.89568 | -44.61350 | 10276 ft | 184 kts | 305° |
| 2026-05-06 04:04 | -19.88855 | -44.62477 | 10274 ft | 184 kts | 305° |
| 2026-05-06 04:04 | -19.88138 | -44.63611 | 10274 ft | 184 kts | 305° |
| 2026-05-06 04:04 | -19.87416 | -44.64751 | 10277 ft | 184 kts | 305° |
| 2026-05-06 04:05 | -19.86692 | -44.65898 | 10271 ft | 184 kts | 305° |
| 2026-05-06 04:05 | -19.86043 | -44.67090 | 10272 ft | 185 kts | 284° |
| 2026-05-06 04:05 | -19.86183 | -44.68432 | 10288 ft | 185 kts | 252° |
| 2026-05-06 04:05 | -19.86598 | -44.69758 | 10266 ft | 186 kts | 249° |
| 2026-05-06 04:06 | -19.87052 | -44.71048 | 10262 ft | 186 kts | 248° |
| 2026-05-06 04:06 | -19.87515 | -44.72339 | 10261 ft | 186 kts | 248° |
| 2026-05-06 04:06 | -19.87982 | -44.73636 | 10263 ft | 186 kts | 248° |
| 2026-05-06 04:06 | -19.88454 | -44.74946 | 10262 ft | 187 kts | 248° |
| 2026-05-06 04:07 | -19.88924 | -44.76248 | 10258 ft | 187 kts | 248° |
| 2026-05-06 04:07 | -19.89391 | -44.77544 | 10254 ft | 186 kts | 248° |
| 2026-05-06 04:07 | -19.89863 | -44.78849 | 10255 ft | 186 kts | 248° |
| 2026-05-06 04:07 | -19.90326 | -44.80133 | 10255 ft | 186 kts | 248° |
| 2026-05-06 04:08 | -19.90795 | -44.81431 | 10256 ft | 186 kts | 248° |
| 2026-05-06 04:08 | -19.91262 | -44.82730 | 10255 ft | 186 kts | 248° |
| 2026-05-06 04:08 | -19.91733 | -44.84038 | 10256 ft | 187 kts | 248° |
| 2026-05-06 04:08 | -19.92204 | -44.85346 | 10256 ft | 187 kts | 248° |
| 2026-05-06 04:09 | -19.92671 | -44.86641 | 10254 ft | 187 kts | 248° |
| 2026-05-06 04:09 | -19.93144 | -44.87953 | 10255 ft | 187 kts | 248° |
| 2026-05-06 04:09 | -19.93614 | -44.89261 | 10251 ft | 188 kts | 248° |
| 2026-05-06 04:09 | -19.94087 | -44.90575 | 10252 ft | 187 kts | 248° |
| 2026-05-06 04:10 | -19.94557 | -44.91880 | 10253 ft | 187 kts | 248° |
| 2026-05-06 04:10 | -19.95022 | -44.93171 | 10258 ft | 187 kts | 248° |
| 2026-05-06 04:10 | -19.95659 | -44.94941 | 10254 ft | 187 kts | 248° |
| 2026-05-06 04:10 | -19.95974 | -44.95816 | 10253 ft | 187 kts | 248° |
| 2026-05-06 04:11 | -19.96453 | -44.97149 | 10252 ft | 187 kts | 248° |
| 2026-05-06 04:11 | -19.96928 | -44.98472 | 10251 ft | 187 kts | 248° |
| 2026-05-06 04:11 | -19.97402 | -44.99791 | 10251 ft | 187 kts | 248° |
| 2026-05-06 04:11 | -19.97880 | -45.01122 | 10256 ft | 188 kts | 248° |
| 2026-05-06 04:12 | -19.98351 | -45.02433 | 10256 ft | 188 kts | 248° |
| 2026-05-06 04:12 | -19.98825 | -45.03753 | 10256 ft | 188 kts | 248° |
| 2026-05-06 04:12 | -19.99295 | -45.05064 | 10256 ft | 188 kts | 248° |
| 2026-05-06 04:12 | -19.99769 | -45.06384 | 10257 ft | 188 kts | 248° |
| 2026-05-06 04:13 | -20.00239 | -45.07695 | 10257 ft | 188 kts | 248° |
| 2026-05-06 04:13 | -20.00711 | -45.09011 | 10258 ft | 187 kts | 248° |
| 2026-05-06 04:13 | -20.01176 | -45.10308 | 10257 ft | 187 kts | 248° |
| 2026-05-06 04:13 | -20.01651 | -45.11634 | 10259 ft | 187 kts | 248° |
| 2026-05-06 04:14 | -20.02115 | -45.12928 | 10258 ft | 187 kts | 248° |
| 2026-05-06 04:14 | -20.02592 | -45.14261 | 10259 ft | 187 kts | 248° |
| 2026-05-06 04:14 | -20.03058 | -45.15562 | 10259 ft | 187 kts | 248° |
| 2026-05-06 04:14 | -20.03530 | -45.16879 | 10260 ft | 187 kts | 248° |
| 2026-05-06 04:15 | -20.03994 | -45.18177 | 10263 ft | 187 kts | 248° |
| 2026-05-06 04:15 | -20.04468 | -45.19500 | 10266 ft | 187 kts | 248° |
| 2026-05-06 04:15 | -20.04939 | -45.20816 | 10264 ft | 188 kts | 248° |
| 2026-05-06 04:15 | -20.05410 | -45.22132 | 10262 ft | 188 kts | 248° |
| 2026-05-06 04:16 | -20.05879 | -45.23445 | 10263 ft | 188 kts | 248° |
| 2026-05-06 04:16 | -20.06347 | -45.24755 | 10265 ft | 187 kts | 248° |
| 2026-05-06 04:16 | -20.06818 | -45.26075 | 10263 ft | 187 kts | 248° |
| 2026-05-06 04:16 | -20.07286 | -45.27383 | 10260 ft | 187 kts | 248° |
| 2026-05-06 04:17 | -20.07759 | -45.28709 | 10259 ft | 187 kts | 247° |
| 2026-05-06 04:17 | -20.08226 | -45.30013 | 10259 ft | 187 kts | 248° |
| 2026-05-06 04:17 | -20.08690 | -45.31313 | 10259 ft | 187 kts | 248° |
| 2026-05-06 04:17 | -20.09166 | -45.32644 | 10260 ft | 187 kts | 248° |
| 2026-05-06 04:18 | -20.09633 | -45.33953 | 10262 ft | 187 kts | 248° |
| 2026-05-06 04:18 | -20.10102 | -45.35268 | 10260 ft | 187 kts | 248° |
| 2026-05-06 04:18 | -20.10566 | -45.36567 | 10258 ft | 187 kts | 248° |
| 2026-05-06 04:18 | -20.11036 | -45.37885 | 10260 ft | 187 kts | 246° |
| 2026-05-06 04:19 | -20.11828 | -45.38975 | 10276 ft | 183 kts | 218° |
| 2026-05-06 04:19 | -20.12801 | -45.39867 | 10264 ft | 184 kts | 216° |
| 2026-05-06 04:19 | -20.13807 | -45.40747 | 10261 ft | 184 kts | 216° |
| 2026-05-06 04:19 | -20.14818 | -45.41627 | 10260 ft | 184 kts | 216° |
| 2026-05-06 04:20 | -20.15827 | -45.42504 | 10260 ft | 184 kts | 216° |
| 2026-05-06 04:20 | -20.16832 | -45.43378 | 10260 ft | 184 kts | 216° |
| 2026-05-06 04:20 | -20.17828 | -45.44245 | 10262 ft | 184 kts | 216° |
| 2026-05-06 04:20 | -20.18827 | -45.45116 | 10264 ft | 184 kts | 216° |
| 2026-05-06 04:21 | -20.19834 | -45.45993 | 10264 ft | 184 kts | 216° |
| 2026-05-06 04:21 | -20.21185 | -45.47171 | 10263 ft | 184 kts | 216° |
| 2026-05-06 04:21 | -20.21855 | -45.47755 | 10263 ft | 184 kts | 216° |
| 2026-05-06 04:21 | -20.22877 | -45.48646 | 10261 ft | 184 kts | 216° |
| 2026-05-06 04:22 | -20.23900 | -45.49539 | 10261 ft | 184 kts | 216° |
| 2026-05-06 04:22 | -20.25258 | -45.50723 | 10260 ft | 184 kts | 216° |
| 2026-05-06 04:22 | -20.25934 | -45.51313 | 10261 ft | 184 kts | 216° |
| 2026-05-06 04:23 | -20.27949 | -45.53072 | 10261 ft | 184 kts | 216° |
| 2026-05-06 04:23 | -20.28966 | -45.53960 | 10261 ft | 183 kts | 216° |
| 2026-05-06 04:23 | -20.29968 | -45.54835 | 10261 ft | 183 kts | 216° |
| 2026-05-06 04:23 | -20.31299 | -45.55999 | 10262 ft | 183 kts | 216° |
| 2026-05-06 04:24 | -20.31972 | -45.56586 | 10262 ft | 183 kts | 216° |
| 2026-05-06 04:24 | -20.32987 | -45.57473 | 10262 ft | 183 kts | 216° |
| 2026-05-06 04:24 | -20.33993 | -45.58352 | 10262 ft | 183 kts | 216° |
| 2026-05-06 04:24 | -20.34994 | -45.59228 | 10264 ft | 183 kts | 216° |
| 2026-05-06 04:25 | -20.35994 | -45.60101 | 10263 ft | 183 kts | 216° |
| 2026-05-06 04:25 | -20.37328 | -45.61269 | 10263 ft | 183 kts | 216° |
| 2026-05-06 04:25 | -20.37994 | -45.61852 | 10262 ft | 183 kts | 216° |
| 2026-05-06 04:25 | -20.39326 | -45.63018 | 10262 ft | 183 kts | 216° |
| 2026-05-06 04:26 | -20.39996 | -45.63604 | 10261 ft | 183 kts | 216° |
| 2026-05-06 04:26 | -20.41002 | -45.64483 | 10260 ft | 183 kts | 216° |
| 2026-05-06 04:26 | -20.42326 | -45.65642 | 10258 ft | 182 kts | 216° |
| 2026-05-06 04:26 | -20.43319 | -45.66513 | 10257 ft | 182 kts | 216° |
| 2026-05-06 04:27 | -20.43982 | -45.67093 | 10257 ft | 182 kts | 216° |
| 2026-05-06 04:27 | -20.44977 | -45.67965 | 10258 ft | 182 kts | 216° |
| 2026-05-06 04:27 | -20.45972 | -45.68835 | 10259 ft | 182 kts | 216° |
| 2026-05-06 04:27 | -20.46960 | -45.69701 | 10258 ft | 182 kts | 217° |
| 2026-05-06 04:28 | -20.47947 | -45.70567 | 10258 ft | 182 kts | 216° |
| 2026-05-06 04:28 | -20.48957 | -45.71452 | 10256 ft | 183 kts | 216° |
| 2026-05-06 04:28 | -20.49952 | -45.72324 | 10255 ft | 183 kts | 217° |
| 2026-05-06 04:28 | -20.50936 | -45.73186 | 10254 ft | 183 kts | 216° |
| 2026-05-06 04:29 | -20.51934 | -45.74062 | 10254 ft | 182 kts | 216° |
| 2026-05-06 04:29 | -20.52931 | -45.74937 | 10254 ft | 182 kts | 216° |
| 2026-05-06 04:29 | -20.53921 | -45.75806 | 10254 ft | 182 kts | 216° |
| 2026-05-06 04:29 | -20.54903 | -45.76669 | 10255 ft | 182 kts | 216° |
| 2026-05-06 04:30 | -20.55890 | -45.77534 | 10255 ft | 182 kts | 216° |
| 2026-05-06 04:30 | -20.56885 | -45.78407 | 10256 ft | 181 kts | 216° |
| 2026-05-06 04:30 | -20.57870 | -45.79272 | 10255 ft | 182 kts | 216° |
| 2026-05-06 04:30 | -20.59185 | -45.80426 | 10255 ft | 182 kts | 216° |
| 2026-05-06 04:31 | -20.59851 | -45.81009 | 10254 ft | 182 kts | 216° |
| 2026-05-06 04:31 | -20.60842 | -45.81881 | 10255 ft | 182 kts | 216° |
| 2026-05-06 04:31 | -20.61834 | -45.82750 | 10255 ft | 182 kts | 216° |
| 2026-05-06 04:31 | -20.62823 | -45.83620 | 10255 ft | 182 kts | 216° |
| 2026-05-06 04:32 | -20.63804 | -45.84484 | 10255 ft | 182 kts | 216° |
| 2026-05-06 04:32 | -20.65116 | -45.85636 | 10256 ft | 181 kts | 216° |
| 2026-05-06 04:32 | -20.66109 | -45.86511 | 10255 ft | 181 kts | 216° |
| 2026-05-06 04:32 | -20.67099 | -45.87381 | 10254 ft | 181 kts | 216° |
| 2026-05-06 04:33 | -20.67759 | -45.87961 | 10254 ft | 181 kts | 216° |
| 2026-05-06 04:33 | -20.68757 | -45.88840 | 10256 ft | 181 kts | 216° |
| 2026-05-06 04:33 | -20.69749 | -45.89712 | 10256 ft | 181 kts | 216° |
| 2026-05-06 04:33 | -20.71082 | -45.90883 | 10255 ft | 181 kts | 216° |
| 2026-05-06 04:34 | -20.71750 | -45.91471 | 10253 ft | 181 kts | 216° |
| 2026-05-06 04:34 | -20.73091 | -45.92651 | 10251 ft | 181 kts | 216° |
| 2026-05-06 04:34 | -20.74090 | -45.93529 | 10250 ft | 182 kts | 216° |
| 2026-05-06 04:34 | -20.75076 | -45.94397 | 10249 ft | 182 kts | 216° |
| 2026-05-06 04:35 | -20.76068 | -45.95270 | 10249 ft | 182 kts | 216° |
| 2026-05-06 04:35 | -20.77070 | -45.96151 | 10249 ft | 182 kts | 216° |
| 2026-05-06 04:35 | -20.78060 | -45.97023 | 10250 ft | 182 kts | 216° |
| 2026-05-06 04:35 | -20.79052 | -45.97897 | 10249 ft | 182 kts | 216° |
| 2026-05-06 04:36 | -20.79707 | -45.98473 | 10250 ft | 181 kts | 216° |
| 2026-05-06 04:36 | -20.81023 | -45.99635 | 10248 ft | 181 kts | 216° |
| 2026-05-06 04:36 | -20.81683 | -46.00215 | 10250 ft | 181 kts | 216° |
| 2026-05-06 04:36 | -20.82991 | -46.01367 | 10250 ft | 180 kts | 216° |
| 2026-05-06 04:37 | -20.83651 | -46.01950 | 10249 ft | 180 kts | 216° |
| 2026-05-06 04:37 | -20.84967 | -46.03111 | 10250 ft | 180 kts | 216° |
| 2026-05-06 04:37 | -20.85944 | -46.03971 | 10251 ft | 181 kts | 216° |
| 2026-05-06 04:37 | -20.86920 | -46.04830 | 10248 ft | 181 kts | 216° |
| 2026-05-06 04:38 | -20.87582 | -46.05415 | 10250 ft | 181 kts | 216° |
| 2026-05-06 04:38 | -20.88562 | -46.06276 | 10252 ft | 181 kts | 216° |
| 2026-05-06 04:38 | -20.89873 | -46.07433 | 10253 ft | 181 kts | 216° |
| 2026-05-06 04:38 | -20.90857 | -46.08303 | 10256 ft | 181 kts | 216° |
| 2026-05-06 04:39 | -20.91850 | -46.09180 | 10254 ft | 181 kts | 216° |
| 2026-05-06 04:39 | -20.92830 | -46.10043 | 10254 ft | 181 kts | 216° |
| 2026-05-06 04:39 | -20.93479 | -46.10618 | 10254 ft | 181 kts | 216° |
| 2026-05-06 04:39 | -20.94781 | -46.11769 | 10255 ft | 181 kts | 216° |
| 2026-05-06 04:40 | -20.95437 | -46.12348 | 10255 ft | 181 kts | 216° |
| 2026-05-06 04:40 | -20.96751 | -46.13508 | 10257 ft | 180 kts | 216° |
| 2026-05-06 04:40 | -20.97766 | -46.14301 | 10261 ft | 177 kts | 200° |
| 2026-05-06 04:40 | -20.98547 | -46.14608 | 10264 ft | 176 kts | 196° |
| 2026-05-06 04:41 | -20.99735 | -46.15049 | 10260 ft | 176 kts | 194° |
| 2026-05-06 04:41 | -21.00919 | -46.15468 | 10264 ft | 176 kts | 194° |
| 2026-05-06 04:41 | -21.02499 | -46.16025 | 10261 ft | 177 kts | 194° |
| 2026-05-06 04:41 | -21.03276 | -46.16299 | 10260 ft | 177 kts | 195° |
| 2026-05-06 04:42 | -21.04864 | -46.16861 | 10261 ft | 177 kts | 194° |
| 2026-05-06 04:42 | -21.06063 | -46.17287 | 10262 ft | 177 kts | 194° |
| 2026-05-06 04:42 | -21.06844 | -46.17564 | 10264 ft | 177 kts | 194° |
| 2026-05-06 04:42 | -21.08431 | -46.18126 | 10261 ft | 177 kts | 194° |
| 2026-05-06 04:43 | -21.09604 | -46.18543 | 10262 ft | 177 kts | 194° |
| 2026-05-06 04:43 | -21.10778 | -46.18960 | 10265 ft | 177 kts | 194° |
| 2026-05-06 04:43 | -21.11967 | -46.19383 | 10266 ft | 176 kts | 194° |
| 2026-05-06 04:43 | -21.13161 | -46.19806 | 10266 ft | 176 kts | 194° |
| 2026-05-06 04:44 | -21.13959 | -46.20090 | 10266 ft | 176 kts | 195° |
| 2026-05-06 04:44 | -21.15540 | -46.20652 | 10265 ft | 176 kts | 194° |
| 2026-05-06 04:44 | -21.16738 | -46.21066 | 10267 ft | 176 kts | 194° |
| 2026-05-06 04:44 | -21.17947 | -46.21479 | 10269 ft | 176 kts | 194° |
| 2026-05-06 04:45 | -21.19142 | -46.21884 | 10268 ft | 176 kts | 194° |
| 2026-05-06 04:45 | -21.20348 | -46.22294 | 10268 ft | 176 kts | 194° |
| 2026-05-06 04:45 | -21.21548 | -46.22701 | 10272 ft | 176 kts | 194° |
| 2026-05-06 04:45 | -21.22745 | -46.23109 | 10273 ft | 176 kts | 194° |
| 2026-05-06 04:46 | -21.23535 | -46.23376 | 10272 ft | 176 kts | 194° |
| 2026-05-06 04:46 | -21.25134 | -46.23922 | 10271 ft | 176 kts | 194° |
| 2026-05-06 04:46 | -21.26325 | -46.24326 | 10272 ft | 176 kts | 193° |
| 2026-05-06 04:46 | -21.27517 | -46.24732 | 10272 ft | 176 kts | 194° |
| 2026-05-06 04:47 | -21.28689 | -46.25130 | 10273 ft | 176 kts | 194° |
| 2026-05-06 04:47 | -21.29878 | -46.25534 | 10273 ft | 176 kts | 194° |
| 2026-05-06 04:47 | -21.31074 | -46.25941 | 10273 ft | 176 kts | 194° |
| 2026-05-06 04:47 | -21.31866 | -46.26212 | 10273 ft | 176 kts | 194° |
| 2026-05-06 04:48 | -21.33462 | -46.26754 | 10273 ft | 176 kts | 194° |
| 2026-05-06 04:48 | -21.34651 | -46.27159 | 10272 ft | 176 kts | 194° |
| 2026-05-06 04:48 | -21.35847 | -46.27568 | 10272 ft | 176 kts | 194° |
| 2026-05-06 04:48 | -21.37031 | -46.27971 | 10270 ft | 177 kts | 194° |
| 2026-05-06 04:49 | -21.38221 | -46.28377 | 10267 ft | 177 kts | 194° |
| 2026-05-06 04:49 | -21.39411 | -46.28784 | 10266 ft | 177 kts | 194° |
| 2026-05-06 04:49 | -21.40602 | -46.29189 | 10266 ft | 177 kts | 194° |
| 2026-05-06 04:49 | -21.41783 | -46.29591 | 10267 ft | 176 kts | 194° |
| 2026-05-06 04:50 | -21.42964 | -46.29994 | 10267 ft | 176 kts | 194° |
| 2026-05-06 04:50 | -21.44143 | -46.30396 | 10266 ft | 176 kts | 194° |
| 2026-05-06 04:50 | -21.45321 | -46.30798 | 10266 ft | 176 kts | 194° |
| 2026-05-06 04:50 | -21.46520 | -46.31206 | 10268 ft | 176 kts | 194° |
| 2026-05-06 04:51 | -21.47693 | -46.31606 | 10269 ft | 176 kts | 194° |
| 2026-05-06 04:51 | -21.48876 | -46.32010 | 10268 ft | 176 kts | 194° |
| 2026-05-06 04:51 | -21.49653 | -46.32275 | 10269 ft | 176 kts | 194° |
| 2026-05-06 04:51 | -21.51231 | -46.32814 | 10272 ft | 176 kts | 194° |
| 2026-05-06 04:52 | -21.52418 | -46.33220 | 10275 ft | 176 kts | 194° |
| 2026-05-06 04:52 | -21.53608 | -46.33627 | 10278 ft | 176 kts | 194° |
| 2026-05-06 04:52 | -21.54793 | -46.34031 | 10280 ft | 176 kts | 194° |
| 2026-05-06 04:52 | -21.55975 | -46.34435 | 10283 ft | 176 kts | 194° |
| 2026-05-06 04:53 | -21.57174 | -46.34845 | 10285 ft | 176 kts | 194° |
| 2026-05-06 04:53 | -21.58357 | -46.35249 | 10288 ft | 176 kts | 194° |
| 2026-05-06 04:53 | -21.59538 | -46.35652 | 10292 ft | 176 kts | 194° |
| 2026-05-06 04:53 | -21.60717 | -46.36056 | 10294 ft | 176 kts | 194° |
| 2026-05-06 04:54 | -21.61910 | -46.36463 | 10297 ft | 176 kts | 194° |
| 2026-05-06 04:54 | -21.63087 | -46.36865 | 10299 ft | 176 kts | 194° |
| 2026-05-06 04:54 | -21.64283 | -46.37274 | 10299 ft | 176 kts | 194° |
| 2026-05-06 04:54 | -21.65457 | -46.37677 | 10300 ft | 177 kts | 194° |
| 2026-05-06 04:55 | -21.66643 | -46.38108 | 10302 ft | 177 kts | 195° |
| 2026-05-06 04:55 | -21.67818 | -46.38538 | 10304 ft | 177 kts | 195° |
| 2026-05-06 04:55 | -21.68596 | -46.38823 | 10307 ft | 177 kts | 195° |
| 2026-05-06 04:55 | -21.70195 | -46.39409 | 10308 ft | 177 kts | 195° |
| 2026-05-06 04:56 | -21.71391 | -46.39849 | 10307 ft | 177 kts | 195° |
| 2026-05-06 04:56 | -21.72600 | -46.40292 | 10309 ft | 177 kts | 195° |
| 2026-05-06 04:56 | -21.73800 | -46.40732 | 10311 ft | 177 kts | 195° |
| 2026-05-06 04:56 | -21.74985 | -46.41167 | 10314 ft | 177 kts | 195° |
| 2026-05-06 04:57 | -21.76177 | -46.41604 | 10315 ft | 176 kts | 195° |
| 2026-05-06 04:57 | -21.76976 | -46.41897 | 10317 ft | 176 kts | 195° |
| 2026-05-06 04:57 | -21.78545 | -46.42473 | 10319 ft | 176 kts | 195° |
| 2026-05-06 04:57 | -21.79728 | -46.42908 | 10319 ft | 176 kts | 195° |
| 2026-05-06 04:58 | -21.80905 | -46.43340 | 10319 ft | 176 kts | 195° |
| 2026-05-06 04:58 | -21.82088 | -46.43774 | 10321 ft | 176 kts | 195° |
| 2026-05-06 04:58 | -21.83260 | -46.44205 | 10323 ft | 176 kts | 195° |
| 2026-05-06 04:58 | -21.84464 | -46.44647 | 10323 ft | 177 kts | 195° |
| 2026-05-06 04:59 | -21.85633 | -46.45077 | 10321 ft | 177 kts | 195° |
| 2026-05-06 04:59 | -21.86827 | -46.45516 | 10321 ft | 177 kts | 195° |
| 2026-05-06 04:59 | -21.88011 | -46.45951 | 10319 ft | 177 kts | 195° |
| 2026-05-06 04:59 | -21.89198 | -46.46388 | 10318 ft | 177 kts | 195° |
| 2026-05-06 05:00 | -21.90380 | -46.46822 | 10317 ft | 177 kts | 195° |
| 2026-05-06 05:00 | -21.91569 | -46.47260 | 10316 ft | 177 kts | 195° |
| 2026-05-06 05:00 | -21.92734 | -46.47688 | 10311 ft | 177 kts | 195° |
| 2026-05-06 05:00 | -21.93927 | -46.48126 | 10315 ft | 177 kts | 195° |
| 2026-05-06 05:01 | -21.95106 | -46.48561 | 10320 ft | 176 kts | 195° |
| 2026-05-06 05:01 | -21.96282 | -46.48994 | 10323 ft | 176 kts | 195° |
| 2026-05-06 05:01 | -21.97450 | -46.49424 | 10324 ft | 176 kts | 195° |
| 2026-05-06 05:01 | -21.98635 | -46.49860 | 10324 ft | 176 kts | 195° |
| 2026-05-06 05:02 | -21.99818 | -46.50296 | 10323 ft | 177 kts | 195° |
| 2026-05-06 05:02 | -22.00989 | -46.50727 | 10320 ft | 177 kts | 195° |
| 2026-05-06 05:02 | -22.02175 | -46.51165 | 10317 ft | 177 kts | 195° |
| 2026-05-06 05:02 | -22.03348 | -46.51596 | 10316 ft | 177 kts | 195° |
| 2026-05-06 05:03 | -22.04521 | -46.52028 | 10315 ft | 177 kts | 195° |
| 2026-05-06 05:03 | -22.05722 | -46.52472 | 10314 ft | 177 kts | 195° |
| 2026-05-06 05:03 | -22.06896 | -46.52903 | 10310 ft | 177 kts | 196° |
| 2026-05-06 05:03 | -22.08084 | -46.53342 | 10308 ft | 177 kts | 195° |
| 2026-05-06 05:04 | -22.09260 | -46.53776 | 10304 ft | 177 kts | 195° |
| 2026-05-06 05:04 | -22.10452 | -46.54216 | 10305 ft | 176 kts | 195° |
| 2026-05-06 05:04 | -22.11615 | -46.54645 | 10303 ft | 176 kts | 195° |
| 2026-05-06 05:04 | -22.12793 | -46.55079 | 10299 ft | 176 kts | 195° |
| 2026-05-06 05:05 | -22.13929 | -46.55499 | 10296 ft | 177 kts | 195° |
| 2026-05-06 05:05 | -22.15118 | -46.55937 | 10293 ft | 177 kts | 196° |
| 2026-05-06 05:05 | -22.16290 | -46.56370 | 10289 ft | 177 kts | 196° |
| 2026-05-06 05:05 | -22.17477 | -46.56808 | 10283 ft | 177 kts | 196° |
| 2026-05-06 05:06 | -22.18645 | -46.57240 | 10278 ft | 177 kts | 196° |
| 2026-05-06 05:06 | -22.19834 | -46.57679 | 10276 ft | 177 kts | 196° |
| 2026-05-06 05:06 | -22.21012 | -46.58115 | 10276 ft | 177 kts | 195° |
| 2026-05-06 05:06 | -22.22209 | -46.58557 | 10274 ft | 177 kts | 195° |
| 2026-05-06 05:07 | -22.23385 | -46.58991 | 10271 ft | 177 kts | 195° |
| 2026-05-06 05:07 | -22.24584 | -46.59434 | 10271 ft | 177 kts | 196° |
| 2026-05-06 05:07 | -22.25775 | -46.59875 | 10272 ft | 177 kts | 195° |
| 2026-05-06 05:07 | -22.26954 | -46.60312 | 10272 ft | 177 kts | 195° |
| 2026-05-06 05:08 | -22.28149 | -46.60754 | 10272 ft | 177 kts | 195° |
| 2026-05-06 05:08 | -22.29339 | -46.61193 | 10271 ft | 177 kts | 196° |
| 2026-05-06 05:08 | -22.30529 | -46.61633 | 10273 ft | 177 kts | 196° |
| 2026-05-06 05:08 | -22.31714 | -46.62071 | 10273 ft | 177 kts | 196° |
| 2026-05-06 05:09 | -22.32890 | -46.62506 | 10272 ft | 177 kts | 196° |
| 2026-05-06 05:09 | -22.34058 | -46.62940 | 10271 ft | 177 kts | 196° |
| 2026-05-06 05:09 | -22.35250 | -46.63382 | 10270 ft | 177 kts | 196° |
| 2026-05-06 05:09 | -22.36419 | -46.63813 | 10268 ft | 177 kts | 196° |
| 2026-05-06 05:10 | -22.37610 | -46.64255 | 10269 ft | 177 kts | 196° |
| 2026-05-06 05:10 | -22.38791 | -46.64693 | 10271 ft | 177 kts | 196° |
| 2026-05-06 05:10 | -22.39963 | -46.65126 | 10271 ft | 177 kts | 196° |
| 2026-05-06 05:10 | -22.41167 | -46.65400 | 10273 ft | 173 kts | 167° |
| 2026-05-06 05:11 | -22.42165 | -46.64717 | 10281 ft | 169 kts | 130° |
| 2026-05-06 05:11 | -22.42904 | -46.63734 | 10264 ft | 170 kts | 125° |
| 2026-05-06 05:11 | -22.43595 | -46.62691 | 10266 ft | 169 kts | 123° |
| 2026-05-06 05:11 | -22.44278 | -46.61621 | 10268 ft | 169 kts | 123° |
| 2026-05-06 05:12 | -22.44941 | -46.60566 | 10269 ft | 170 kts | 123° |
| 2026-05-06 05:12 | -22.45602 | -46.59504 | 10268 ft | 170 kts | 123° |
| 2026-05-06 05:12 | -22.46272 | -46.58421 | 10269 ft | 170 kts | 123° |
| 2026-05-06 05:12 | -22.46929 | -46.57357 | 10270 ft | 170 kts | 122° |
| 2026-05-06 05:13 | -22.47592 | -46.56279 | 10271 ft | 170 kts | 122° |
| 2026-05-06 05:13 | -22.48254 | -46.55201 | 10270 ft | 170 kts | 122° |
| 2026-05-06 05:13 | -22.48909 | -46.54134 | 10272 ft | 170 kts | 122° |
| 2026-05-06 05:13 | -22.49570 | -46.53056 | 10270 ft | 170 kts | 122° |
| 2026-05-06 05:14 | -22.50233 | -46.51977 | 10261 ft | 170 kts | 122° |
| 2026-05-06 05:14 | -22.50887 | -46.50905 | 10260 ft | 170 kts | 122° |
| 2026-05-06 05:14 | -22.51549 | -46.49825 | 10267 ft | 170 kts | 122° |
| 2026-05-06 05:14 | -22.52199 | -46.48764 | 10274 ft | 170 kts | 122° |
| 2026-05-06 05:15 | -22.52862 | -46.47679 | 10278 ft | 170 kts | 122° |
| 2026-05-06 05:15 | -22.53523 | -46.46598 | 10282 ft | 171 kts | 122° |
| 2026-05-06 05:15 | -22.54187 | -46.45513 | 10283 ft | 171 kts | 123° |
| 2026-05-06 05:15 | -22.54845 | -46.44438 | 10282 ft | 171 kts | 122° |
| 2026-05-06 05:16 | -22.55508 | -46.43349 | 10280 ft | 170 kts | 123° |
| 2026-05-06 05:16 | -22.56172 | -46.42268 | 10289 ft | 170 kts | 122° |
| 2026-05-06 05:16 | -22.56830 | -46.41191 | 10293 ft | 170 kts | 122° |
| 2026-05-06 05:16 | -22.57488 | -46.40114 | 10294 ft | 171 kts | 123° |
| 2026-05-06 05:17 | -22.58142 | -46.39045 | 10297 ft | 171 kts | 122° |
| 2026-05-06 05:17 | -22.58810 | -46.37954 | 10297 ft | 171 kts | 122° |
| 2026-05-06 05:17 | -22.59470 | -46.36869 | 10298 ft | 170 kts | 122° |
| 2026-05-06 05:17 | -22.60134 | -46.35786 | 10299 ft | 170 kts | 122° |
| 2026-05-06 05:18 | -22.60789 | -46.34712 | 10303 ft | 170 kts | 122° |
| 2026-05-06 05:18 | -22.61452 | -46.33625 | 10308 ft | 170 kts | 122° |
| 2026-05-06 05:18 | -22.62119 | -46.32532 | 10308 ft | 170 kts | 122° |
| 2026-05-06 05:18 | -22.62785 | -46.31437 | 10307 ft | 170 kts | 122° |
| 2026-05-06 05:19 | -22.63450 | -46.30346 | 10309 ft | 170 kts | 123° |
| 2026-05-06 05:19 | -22.64120 | -46.29251 | 10313 ft | 171 kts | 122° |
| 2026-05-06 05:19 | -22.64781 | -46.28165 | 10313 ft | 171 kts | 122° |
| 2026-05-06 05:19 | -22.65452 | -46.27063 | 10309 ft | 171 kts | 122° |
| 2026-05-06 05:20 | -22.66119 | -46.25970 | 10312 ft | 171 kts | 122° |
| 2026-05-06 05:20 | -22.66785 | -46.24881 | 10312 ft | 171 kts | 122° |
| 2026-05-06 05:20 | -22.67448 | -46.23792 | 10306 ft | 171 kts | 122° |
| 2026-05-06 05:20 | -22.68107 | -46.22715 | 10314 ft | 171 kts | 122° |
| 2026-05-06 05:21 | -22.68768 | -46.21621 | 10303 ft | 171 kts | 122° |
| 2026-05-06 05:21 | -22.69432 | -46.20530 | 10303 ft | 171 kts | 122° |
| 2026-05-06 05:21 | -22.70101 | -46.19432 | 10310 ft | 171 kts | 122° |
| 2026-05-06 05:21 | -22.70761 | -46.18350 | 10308 ft | 172 kts | 122° |
| 2026-05-06 05:22 | -22.71423 | -46.17260 | 10307 ft | 172 kts | 122° |
| 2026-05-06 05:22 | -22.72091 | -46.16156 | 10309 ft | 171 kts | 122° |
| 2026-05-06 05:22 | -22.72748 | -46.15083 | 10313 ft | 171 kts | 123° |
| 2026-05-06 05:22 | -22.73406 | -46.14001 | 10306 ft | 171 kts | 123° |
| 2026-05-06 05:23 | -22.74057 | -46.12921 | 10307 ft | 170 kts | 122° |
| 2026-05-06 05:23 | -22.74719 | -46.11840 | 10306 ft | 170 kts | 122° |
| 2026-05-06 05:23 | -22.76026 | -46.09688 | 10305 ft | 169 kts | 121° |
| 2026-05-06 05:24 | -22.76672 | -46.08626 | 10307 ft | 168 kts | 122° |
| 2026-05-06 05:24 | -22.77332 | -46.07548 | 10303 ft | 168 kts | 122° |
| 2026-05-06 05:24 | -22.77973 | -46.06476 | 10299 ft | 168 kts | 122° |
| 2026-05-06 05:24 | -22.78622 | -46.05418 | 10306 ft | 168 kts | 122° |
| 2026-05-06 05:25 | -22.79262 | -46.04359 | 10299 ft | 168 kts | 122° |
| 2026-05-06 05:25 | -22.79911 | -46.03292 | 10309 ft | 168 kts | 122° |
| 2026-05-06 05:25 | -22.80550 | -46.02231 | 10303 ft | 168 kts | 122° |
| 2026-05-06 05:25 | -22.81206 | -46.01156 | 10308 ft | 168 kts | 122° |
| 2026-05-06 05:26 | -22.81847 | -46.00098 | 10309 ft | 168 kts | 122° |
| 2026-05-06 05:26 | -22.82493 | -45.99027 | 10302 ft | 168 kts | 123° |
| 2026-05-06 05:26 | -22.83148 | -45.97953 | 10298 ft | 169 kts | 121° |
| 2026-05-06 05:26 | -22.84036 | -45.97166 | 10296 ft | 170 kts | 165° |
| 2026-05-06 05:27 | -22.85203 | -45.97333 | 10293 ft | 173 kts | 210° |
| 2026-05-06 05:27 | -22.85941 | -45.98358 | 10300 ft | 176 kts | 251° |
| 2026-05-06 05:27 | -22.86171 | -45.99647 | 10297 ft | 177 kts | 261° |
| 2026-05-06 05:27 | -22.86296 | -46.00987 | 10293 ft | 177 kts | 264° |
| 2026-05-06 05:28 | -22.86376 | -46.02319 | 10297 ft | 177 kts | 266° |
| 2026-05-06 05:28 | -22.86443 | -46.03679 | 10299 ft | 178 kts | 266° |
| 2026-05-06 05:28 | -22.86496 | -46.05020 | 10297 ft | 179 kts | 266° |
| 2026-05-06 05:28 | -22.86541 | -46.06371 | 10280 ft | 178 kts | 267° |
| 2026-05-06 05:29 | -22.86584 | -46.07707 | 10273 ft | 178 kts | 267° |
| 2026-05-06 05:29 | -22.86628 | -46.09047 | 10266 ft | 177 kts | 267° |
| 2026-05-06 05:29 | -22.86666 | -46.10381 | 10274 ft | 175 kts | 268° |
| 2026-05-06 05:29 | -22.86704 | -46.11691 | 10273 ft | 175 kts | 267° |
| 2026-05-06 05:30 | -22.86739 | -46.13020 | 10279 ft | 175 kts | 266° |
| 2026-05-06 05:30 | -22.86782 | -46.14342 | 10281 ft | 176 kts | 267° |
| 2026-05-06 05:30 | -22.86819 | -46.15677 | 10278 ft | 177 kts | 267° |
| 2026-05-06 05:30 | -22.86858 | -46.17022 | 10279 ft | 178 kts | 267° |
| 2026-05-06 05:31 | -22.86895 | -46.18363 | 10279 ft | 178 kts | 267° |
| 2026-05-06 05:31 | -22.86932 | -46.19694 | 10267 ft | 179 kts | 267° |
| 2026-05-06 05:31 | -22.86970 | -46.21054 | 10267 ft | 178 kts | 267° |
| 2026-05-06 05:31 | -22.87007 | -46.22385 | 10271 ft | 178 kts | 268° |
| 2026-05-06 05:32 | -22.87047 | -46.23744 | 10260 ft | 178 kts | 267° |
| 2026-05-06 05:32 | -22.87080 | -46.25070 | 10260 ft | 177 kts | 267° |
| 2026-05-06 05:32 | -22.87117 | -46.26428 | 10264 ft | 177 kts | 267° |
| 2026-05-06 05:32 | -22.87153 | -46.27756 | 10259 ft | 177 kts | 267° |
| 2026-05-06 05:33 | -22.87189 | -46.29093 | 10255 ft | 177 kts | 267° |
| 2026-05-06 05:33 | -22.87227 | -46.30446 | 10256 ft | 177 kts | 267° |
| 2026-05-06 05:33 | -22.87264 | -46.31784 | 10249 ft | 177 kts | 267° |
| 2026-05-06 05:33 | -22.87298 | -46.33111 | 10242 ft | 177 kts | 267° |
| 2026-05-06 05:34 | -22.87339 | -46.34467 | 10237 ft | 176 kts | 266° |
| 2026-05-06 05:34 | -22.87376 | -46.35787 | 10243 ft | 176 kts | 266° |
| 2026-05-06 05:34 | -22.87411 | -46.37131 | 10244 ft | 177 kts | 267° |
| 2026-05-06 05:34 | -22.87449 | -46.38467 | 10235 ft | 177 kts | 267° |
| 2026-05-06 05:35 | -22.87486 | -46.39803 | 10237 ft | 177 kts | 267° |
| 2026-05-06 05:35 | -22.87518 | -46.41140 | 10235 ft | 177 kts | 267° |
| 2026-05-06 05:35 | -22.87552 | -46.42485 | 10238 ft | 177 kts | 267° |
| 2026-05-06 05:35 | -22.87587 | -46.43831 | 10234 ft | 177 kts | 267° |
| 2026-05-06 05:36 | -22.87623 | -46.45180 | 10234 ft | 177 kts | 268° |
| 2026-05-06 05:36 | -22.87657 | -46.46525 | 10227 ft | 177 kts | 267° |
| 2026-05-06 05:36 | -22.87692 | -46.47868 | 10225 ft | 177 kts | 267° |
| 2026-05-06 05:36 | -22.87730 | -46.49220 | 10238 ft | 177 kts | 267° |
| 2026-05-06 05:37 | -22.87764 | -46.50558 | 10233 ft | 177 kts | 266° |
| 2026-05-06 05:37 | -22.87798 | -46.51923 | 10238 ft | 178 kts | 267° |
| 2026-05-06 05:37 | -22.87837 | -46.53260 | 10243 ft | 179 kts | 268° |
| 2026-05-06 05:37 | -22.87870 | -46.54621 | 10241 ft | 180 kts | 267° |
| 2026-05-06 05:38 | -22.87905 | -46.55999 | 10222 ft | 180 kts | 267° |
| 2026-05-06 05:38 | -22.87941 | -46.57362 | 10216 ft | 179 kts | 267° |
| 2026-05-06 05:38 | -22.87972 | -46.58706 | 10222 ft | 179 kts | 267° |
| 2026-05-06 05:38 | -22.88008 | -46.60068 | 10227 ft | 179 kts | 268° |
| 2026-05-06 05:39 | -22.88043 | -46.61415 | 10231 ft | 179 kts | 268° |
| 2026-05-06 05:39 | -22.88077 | -46.62776 | 10229 ft | 179 kts | 268° |
| 2026-05-06 05:39 | -22.88111 | -46.64134 | 10230 ft | 180 kts | 268° |
| 2026-05-06 05:39 | -22.88144 | -46.65504 | 10213 ft | 180 kts | 267° |
| 2026-05-06 05:40 | -22.88179 | -46.66853 | 10219 ft | 179 kts | 268° |
| 2026-05-06 05:40 | -22.88210 | -46.68205 | 10232 ft | 179 kts | 267° |
| 2026-05-06 05:40 | -22.88244 | -46.69592 | 10227 ft | 180 kts | 268° |
| 2026-05-06 05:40 | -22.88281 | -46.70960 | 10215 ft | 180 kts | 267° |
| 2026-05-06 05:41 | -22.88315 | -46.72329 | 10199 ft | 179 kts | 268° |
| 2026-05-06 05:41 | -22.88344 | -46.73695 | 10221 ft | 179 kts | 268° |
| 2026-05-06 05:41 | -22.88380 | -46.75075 | 10223 ft | 181 kts | 268° |
| 2026-05-06 05:41 | -22.88414 | -46.76461 | 10223 ft | 181 kts | 268° |
| 2026-05-06 05:42 | -22.88448 | -46.77847 | 10218 ft | 182 kts | 268° |
| 2026-05-06 05:42 | -22.88481 | -46.79212 | 10211 ft | 182 kts | 268° |
| 2026-05-06 05:42 | -22.88516 | -46.80602 | 10225 ft | 182 kts | 268° |
| 2026-05-06 05:42 | -22.88546 | -46.81965 | 10222 ft | 182 kts | 268° |
| 2026-05-06 05:43 | -22.88581 | -46.83363 | 10136 ft | 187 kts | 268° |
| 2026-05-06 05:43 | -22.88616 | -46.84797 | 10014 ft | 192 kts | 268° |
| 2026-05-06 05:43 | -22.88650 | -46.86270 | 9888 ft | 194 kts | 268° |
| 2026-05-06 05:43 | -22.88688 | -46.87728 | 9750 ft | 196 kts | 269° |
| 2026-05-06 05:44 | -22.88715 | -46.89217 | 9612 ft | 197 kts | 268° |
| 2026-05-06 05:44 | -22.88754 | -46.90702 | 9469 ft | 198 kts | 269° |
| 2026-05-06 05:44 | -22.88790 | -46.92209 | 9322 ft | 198 kts | 268° |
| 2026-05-06 05:44 | -22.88820 | -46.93713 | 9183 ft | 198 kts | 268° |
| 2026-05-06 05:45 | -22.88861 | -46.95204 | 9045 ft | 198 kts | 269° |
| 2026-05-06 05:45 | -22.88893 | -46.96707 | 8896 ft | 198 kts | 268° |
| 2026-05-06 05:45 | -22.88927 | -46.98217 | 8739 ft | 196 kts | 269° |
| 2026-05-06 05:45 | -22.88961 | -46.99686 | 8585 ft | 190 kts | 268° |
| 2026-05-06 05:46 | -22.88987 | -47.01121 | 8449 ft | 185 kts | 269° |
| 2026-05-06 05:46 | -22.89024 | -47.02510 | 8308 ft | 182 kts | 269° |
| 2026-05-06 05:46 | -22.89057 | -47.03895 | 8176 ft | 181 kts | 269° |
| 2026-05-06 05:46 | -22.89088 | -47.05277 | 8026 ft | 180 kts | 269° |
| 2026-05-06 05:47 | -22.89118 | -47.06644 | 7874 ft | 179 kts | 269° |
| 2026-05-06 05:47 | -22.89148 | -47.08033 | 7715 ft | 178 kts | 270° |
| 2026-05-06 05:47 | -22.89176 | -47.09391 | 7566 ft | 178 kts | 268° |
| 2026-05-06 05:47 | -22.89207 | -47.10730 | 7434 ft | 177 kts | 269° |
| 2026-05-06 05:48 | -22.89242 | -47.12070 | 7291 ft | 176 kts | 269° |
| 2026-05-06 05:48 | -22.89267 | -47.13411 | 7145 ft | 175 kts | 269° |
| 2026-05-06 05:48 | -22.89287 | -47.14681 | 6982 ft | 155 kts | 271° |
| 2026-05-06 05:48 | -22.89315 | -47.15772 | 6819 ft | 137 kts | 270° |
| 2026-05-06 05:49 | -22.89339 | -47.16760 | 6655 ft | 121 kts | 270° |
| 2026-05-06 05:49 | -22.89359 | -47.17615 | 6488 ft | 108 kts | 269° |
| 2026-05-06 05:49 | -22.89383 | -47.18412 | 6331 ft | 109 kts | 268° |
| 2026-05-06 05:49 | -22.89402 | -47.19275 | 6204 ft | 117 kts | 269° |
| 2026-05-06 05:50 | -22.89423 | -47.20183 | 6074 ft | 121 kts | 269° |
| 2026-05-06 05:50 | -22.89440 | -47.21109 | 5938 ft | 125 kts | 270° |
| 2026-05-06 05:50 | -22.89461 | -47.22073 | 5785 ft | 126 kts | 271° |
| 2026-05-06 05:50 | -22.89478 | -47.23010 | 5636 ft | 121 kts | 270° |
| 2026-05-06 05:51 | -22.89497 | -47.23900 | 5479 ft | 114 kts | 269° |
| 2026-05-06 05:51 | -22.89512 | -47.24748 | 5316 ft | 109 kts | 271° |
| 2026-05-06 05:51 | -22.89530 | -47.25550 | 5162 ft | 103 kts | 270° |
| 2026-05-06 05:51 | -22.89545 | -47.26315 | 5005 ft | 99 kts | 269° |
| 2026-05-06 05:52 | -22.89564 | -47.27056 | 4842 ft | 95 kts | 270° |
| 2026-05-06 05:52 | -22.89737 | -47.27735 | 4612 ft | 99 kts | 221° |
| 2026-05-06 05:52 | -22.90391 | -47.27903 | 4399 ft | 101 kts | 156° |
| 2026-05-06 05:52 | -22.90890 | -47.27370 | 4157 ft | 107 kts | 123° |
| 2026-05-06 05:53 | -22.91298 | -47.26696 | 3971 ft | 104 kts | 122° |
| 2026-05-06 05:53 | -22.91710 | -47.26037 | 3788 ft | 103 kts | 125° |
| 2026-05-06 05:53 | -22.92135 | -47.25383 | 3703 ft | 118 kts | 124° |
| 2026-05-06 05:53 | -22.92667 | -47.24637 | 3752 ft | 131 kts | 126° |
| 2026-05-06 05:54 | -22.93259 | -47.23804 | 3723 ft | 145 kts | 125° |
| 2026-05-06 05:54 | -22.93881 | -47.22916 | 3776 ft | 147 kts | 127° |
| 2026-05-06 05:54 | -22.94527 | -47.22035 | 3727 ft | 156 kts | 127° |
| 2026-05-06 05:54 | -22.95231 | -47.21077 | 3528 ft | 160 kts | 129° |
| 2026-05-06 05:55 | -22.95911 | -47.20137 | 3333 ft | 158 kts | 127° |
| 2026-05-06 05:55 | -22.96592 | -47.19196 | 3126 ft | 152 kts | 129° |
| 2026-05-06 05:55 | -22.97220 | -47.18339 | 2945 ft | 137 kts | 128° |
| 2026-05-06 05:55 | -22.97776 | -47.17559 | 2779 ft | 122 kts | 128° |
| 2026-05-06 05:56 | -22.98256 | -47.16888 | 2649 ft | 99 kts | 130° |
| 2026-05-06 05:56 | -22.98650 | -47.16343 | 2564 ft | 92 kts | 127° |
| 2026-05-06 05:56 | -22.99061 | -47.15777 | 2538 ft | 95 kts | 126° |
| 2026-05-06 05:56 | -22.99469 | -47.15212 | 2427 ft | 87 kts | 129° |
| 2026-05-06 05:57 | -22.99847 | -47.14703 | 2268 ft | 88 kts | 128° |
| 2026-05-06 05:57 | -23.00208 | -47.14185 | 2177 ft | 77 kts | 131° |
| 2026-05-06 05:57 | -23.00497 | -47.13793 | 2178 ft | 56 kts | 127° |
| 2026-05-06 05:57 | -23.00709 | -47.13493 | 2178 ft | 45 kts | 128° |
| 2026-05-06 05:58 | -23.00887 | -47.13246 | 2179 ft | 37 kts | 130° |
| 2026-05-06 05:58 | -23.01037 | -47.13034 | 2179 ft | 33 kts | 130° |
| 2026-05-06 05:58 | -23.01197 | -47.12870 | 2179 ft | 30 kts | 152° |
| 2026-05-06 05:58 | -23.01349 | -47.12794 | 2179 ft | 2 kts | 157° |
| 2026-05-06 06:00 | -23.01350 | -47.12793 | 2179 ft | 0 kts | 157° |
| 2026-05-06 06:00 | -23.01376 | -47.12782 | 2179 ft | 8 kts | 158° |
| 2026-05-06 06:00 | -23.01471 | -47.12732 | 2180 ft | 20 kts | 145° |
| 2026-05-06 06:01 | -23.01576 | -47.12599 | 2180 ft | 23 kts | 128° |
| 2026-05-06 06:01 | -23.01666 | -47.12471 | 2180 ft | 19 kts | 131° |
| 2026-05-06 06:01 | -23.01749 | -47.12361 | 2180 ft | 17 kts | 134° |
| 2026-05-06 06:01 | -23.01826 | -47.12399 | 2180 ft | 13 kts | 262° |
| 2026-05-06 06:02 | -23.01854 | -47.12472 | 2180 ft | 10 kts | 223° |
| 2026-05-06 06:02 | -23.01863 | -47.12534 | 2180 ft | 7 kts | 301° |
| 2026-05-06 06:02 | -23.01844 | -47.12561 | 2180 ft | 0 kts | 306° |